KREO/REO METAR and TAF weather

Enter ICAO airport designator
Station Type Date Time Source
KREO METAR 2023/02/04 00:52 UTC NOAA

KREO 040052Z AUTO 22008KT 07/M03 A3012 RMK AO1 SLP218 T00671028


Station Type Date Time Source
KREO Decoded METAR 2023/02/04 00:52 UTC NOAA

ROME, OR, United States (KREO) 42-35N 117-52W 1235M
Feb 03, 2023 - 07:52 PM EST / 2023.02.04 0052 UTC
Wind: from the SW (220 degrees) at 9 MPH (8 KT):0
Temperature: 44.1 F (6.7 C)
Dew Point: 27.0 F (-2.8 C)
Relative Humidity: 50%
Pressure (altimeter): 30.12 in. Hg (1019 hPa)
ob: KREO 040052Z AUTO 22008KT 07/M03 A3012 RMK AO1 SLP218 T00671028
cycle: 1

Station Type Date Time Source
KREO TAF UTC NOAA

Error!

Example: see airport list